createdAt,value
2022-08-20T00:00:40.864Z,28.37
2022-08-20T00:03:16.968Z,28.30
2022-08-20T00:05:55.976Z,28.27
2022-08-20T00:08:24.150Z,28.27
2022-08-20T00:10:55.610Z,28.23
2022-08-20T00:13:36.654Z,28.18
2022-08-20T00:16:04.207Z,28.21
2022-08-20T00:18:30.707Z,28.20
2022-08-20T00:20:58.119Z,28.16
2022-08-20T00:23:25.493Z,28.16
2022-08-20T00:25:53.130Z,28.13
2022-08-20T00:28:19.963Z,28.11
2022-08-20T00:30:47.475Z,28.08
2022-08-20T00:33:19.068Z,28.04
2022-08-20T00:35:49.592Z,28.00
2022-08-20T00:38:16.405Z,27.95
2022-08-20T00:41:01.351Z,27.83
2022-08-20T00:43:36.376Z,27.77
2022-08-20T00:46:07.794Z,27.66
2022-08-20T00:48:36.844Z,27.58
2022-08-20T00:51:30.003Z,27.42
2022-08-20T00:54:02.691Z,27.36
2022-08-20T00:56:33.918Z,27.22
2022-08-20T00:59:02.014Z,27.12
2022-08-20T01:01:29.454Z,27.04
2022-08-20T01:03:56.601Z,26.97
2022-08-20T01:06:25.197Z,26.90
2022-08-20T01:08:52.646Z,26.85
2022-08-20T01:11:22.761Z,26.81
2022-08-20T01:13:49.820Z,26.77
2022-08-20T01:16:23.836Z,26.71
2022-08-20T01:18:51.844Z,26.70
2022-08-20T01:21:32.226Z,26.68
2022-08-20T01:24:17.135Z,26.67
2022-08-20T01:26:45.839Z,26.64
2022-08-20T01:29:16.268Z,26.60
2022-08-20T01:31:43.594Z,26.59
2022-08-20T01:34:13.587Z,26.54
2022-08-20T01:36:53.064Z,26.48
2022-08-20T01:39:26.589Z,26.43
2022-08-20T01:42:20.907Z,26.36
2022-08-20T01:44:47.680Z,26.36
2022-08-20T01:47:20.354Z,26.31
2022-08-20T01:49:52.059Z,26.25
2022-08-20T01:52:43.612Z,26.16
2022-08-20T01:55:10.917Z,26.14
2022-08-20T01:57:38.898Z,26.09
2022-08-20T02:00:10.981Z,26.03
2022-08-20T02:02:45.882Z,26.00
2022-08-20T02:05:12.416Z,25.96
2022-08-20T02:07:39.208Z,25.93
2022-08-20T02:10:08.860Z,25.92
2022-08-20T02:12:35.597Z,25.94
2022-08-20T02:15:02.941Z,25.94
2022-08-20T02:17:30.301Z,25.94
2022-08-20T02:20:06.301Z,25.92
2022-08-20T02:22:53.653Z,25.92
2022-08-20T02:25:25.166Z,25.95
2022-08-20T02:27:54.244Z,25.94
2022-08-20T02:30:33.846Z,25.93
2022-08-20T02:33:03.454Z,25.97
2022-08-20T02:39:26.618Z,25.99
2022-08-20T02:42:22.134Z,26.02
2022-08-20T02:44:51.628Z,26.08
2022-08-20T02:47:37.286Z,26.08
2022-08-20T02:50:08.155Z,26.10
2022-08-20T02:52:41.590Z,26.11
2022-08-20T02:55:25.938Z,26.15
2022-08-20T02:57:58.547Z,26.15
2022-08-20T03:00:27.281Z,26.15
2022-08-20T03:02:53.899Z,26.17
2022-08-20T03:05:20.581Z,26.17
2022-08-20T03:07:50.351Z,26.16
2022-08-20T03:10:17.121Z,26.18
2022-08-20T03:12:43.644Z,26.18
2022-08-20T03:15:17.210Z,26.19
2022-08-20T03:17:44.777Z,26.19
2022-08-20T03:20:12.089Z,26.20
2022-08-20T03:22:38.773Z,26.21
2022-08-20T03:25:05.680Z,26.19
2022-08-20T03:27:36.451Z,26.20
2022-08-20T03:30:06.899Z,26.18
2022-08-20T03:32:33.554Z,26.18
2022-08-20T03:35:00.262Z,26.17
2022-08-20T03:37:33.529Z,26.12
2022-08-20T03:40:00.872Z,26.13
2022-08-20T03:42:27.655Z,26.12
2022-08-20T03:44:58.978Z,26.12
2022-08-20T03:47:26.904Z,26.11
2022-08-20T03:50:02.071Z,26.09
2022-08-20T03:52:29.434Z,26.11
2022-08-20T03:54:56.897Z,26.10
2022-08-20T03:57:23.593Z,26.09
2022-08-20T03:59:54.698Z,26.07
2022-08-20T04:02:25.546Z,26.06
2022-08-20T04:04:52.128Z,26.06
2022-08-20T04:07:25.951Z,26.02
2022-08-20T04:09:54.751Z,26.02
2022-08-20T04:12:22.697Z,26.02
2022-08-20T04:14:50.223Z,25.99
2022-08-20T04:17:18.925Z,25.96
2022-08-20T04:19:47.403Z,25.94
2022-08-20T04:22:14.359Z,25.89
2022-08-20T04:24:43.089Z,25.86
2022-08-20T04:27:10.964Z,25.84
2022-08-20T04:29:42.994Z,25.83
2022-08-20T04:32:09.672Z,25.83
2022-08-20T04:34:36.891Z,25.85
2022-08-20T04:37:04.650Z,25.86
2022-08-20T04:39:31.333Z,25.88
2022-08-20T04:41:57.915Z,25.89
2022-08-20T04:44:24.472Z,25.91
2022-08-20T04:46:50.973Z,25.95
2022-08-20T04:49:17.494Z,25.96
2022-08-20T04:51:43.988Z,25.99
2022-08-20T04:54:11.695Z,26.03
2022-08-20T04:56:39.586Z,26.06
2022-08-20T04:59:07.519Z,26.08
2022-08-20T05:01:35.726Z,26.11
2022-08-20T05:04:02.369Z,26.14
2022-08-20T05:06:31.580Z,26.17
2022-08-20T05:08:59.958Z,26.19
2022-08-20T05:15:39.531Z,26.21
2022-08-20T05:18:07.920Z,26.25
2022-08-20T05:20:41.183Z,26.21
2022-08-20T05:23:10.585Z,26.20
2022-08-20T05:25:39.176Z,26.19
2022-08-20T05:28:09.823Z,26.20
2022-08-20T05:30:37.862Z,26.23
2022-08-20T05:33:06.414Z,26.21
2022-08-20T05:35:35.852Z,26.19
2022-08-20T05:38:02.716Z,26.20
2022-08-20T05:40:29.353Z,26.21
2022-08-20T05:42:56.030Z,26.20
2022-08-20T05:45:23.411Z,26.20
2022-08-20T05:47:56.389Z,26.20
2022-08-20T05:50:23.632Z,26.21
2022-08-20T05:52:50.427Z,26.24
2022-08-20T05:55:16.950Z,26.27
2022-08-20T05:57:43.459Z,26.31
2022-08-20T06:00:13.251Z,26.31
2022-08-20T06:03:15.657Z,26.34
2022-08-20T06:05:42.227Z,26.37
2022-08-20T06:08:10.080Z,26.37
2022-08-20T06:10:37.949Z,26.40
2022-08-20T06:13:06.969Z,26.43
2022-08-20T06:15:34.704Z,26.47
2022-08-20T06:18:10.118Z,26.53
2022-08-20T06:20:53.097Z,26.60
2022-08-20T06:23:20.646Z,26.67
2022-08-20T06:25:49.983Z,26.71
2022-08-20T06:28:16.998Z,26.75
2022-08-20T06:30:43.563Z,26.79
2022-08-20T06:33:10.156Z,26.79
2022-08-20T06:35:37.811Z,26.80
2022-08-20T06:38:05.862Z,26.79
2022-08-20T06:40:34.136Z,26.81
2022-08-20T06:43:01.050Z,26.82
2022-08-20T06:45:31.868Z,26.82
2022-08-20T06:48:02.150Z,26.82
2022-08-20T06:50:43.217Z,26.82
2022-08-20T06:53:18.510Z,26.86
2022-08-20T06:55:49.191Z,26.88
2022-08-20T06:58:37.781Z,26.91
2022-08-20T07:01:09.885Z,26.96
2022-08-20T07:03:38.304Z,26.99
2022-08-20T07:06:06.165Z,27.02
2022-08-20T07:08:33.312Z,27.08
2022-08-20T07:10:59.915Z,27.13
2022-08-20T07:13:26.447Z,27.19
2022-08-20T07:19:29.330Z,27.30
2022-08-20T07:24:57.687Z,27.39
2022-08-20T07:27:24.426Z,27.41
2022-08-20T07:30:12.899Z,27.44
2022-08-20T07:32:45.411Z,27.48
2022-08-20T07:35:14.704Z,27.49
2022-08-20T07:37:48.417Z,27.49
2022-08-20T07:40:42.362Z,27.44
2022-08-20T07:43:10.786Z,27.44
2022-08-20T07:45:38.168Z,27.41
2022-08-20T07:48:09.841Z,27.35
2022-08-20T07:50:36.346Z,27.34
2022-08-20T07:53:02.841Z,27.30
2022-08-20T07:55:30.432Z,27.27
2022-08-20T07:57:59.128Z,27.24
2022-08-20T08:00:26.810Z,27.24
2022-08-20T08:02:53.304Z,27.26
2022-08-20T08:05:19.988Z,27.25
2022-08-20T08:07:46.681Z,27.24
2022-08-20T08:10:21.992Z,27.22
2022-08-20T08:12:55.700Z,27.24
2022-08-20T08:15:26.211Z,27.26
2022-08-20T08:17:55.461Z,27.26
2022-08-20T08:20:23.241Z,27.26
2022-08-20T08:22:50.863Z,27.22
2022-08-20T08:25:17.618Z,27.23
2022-08-20T08:27:45.696Z,27.19
2022-08-20T08:30:13.533Z,27.15
2022-08-20T08:33:02.872Z,27.15
2022-08-20T08:35:32.621Z,27.15
2022-08-20T08:38:02.193Z,27.17
2022-08-20T08:40:31.175Z,27.19
2022-08-20T08:43:01.020Z,27.23
2022-08-20T08:45:33.233Z,27.27
2022-08-20T08:48:00.108Z,27.35
2022-08-20T08:50:52.900Z,27.36
2022-08-20T08:53:27.752Z,27.39
2022-08-20T08:55:54.630Z,27.46
2022-08-20T08:58:21.206Z,27.49
2022-08-20T09:00:56.039Z,27.51
2022-08-20T09:03:31.239Z,27.55
2022-08-20T09:06:00.874Z,27.61
2022-08-20T09:08:33.397Z,27.72
2022-08-20T09:11:06.239Z,27.85
2022-08-20T09:13:33.149Z,28.07
2022-08-20T09:15:59.890Z,28.26
2022-08-20T09:18:26.788Z,28.47
2022-08-20T09:20:53.376Z,28.69
2022-08-20T09:23:20.008Z,28.87
2022-08-20T09:25:46.589Z,29.02
2022-08-20T09:28:13.126Z,29.11
2022-08-20T09:30:40.803Z,29.21
2022-08-20T09:33:08.820Z,29.26
2022-08-20T09:35:35.319Z,29.31
2022-08-20T09:38:02.102Z,29.33
2022-08-20T09:40:28.591Z,29.33
2022-08-20T09:42:55.203Z,29.32
2022-08-20T09:45:22.210Z,29.28
2022-08-20T09:47:56.640Z,29.22
2022-08-20T09:50:25.985Z,29.15
2022-08-20T09:52:54.793Z,29.10
2022-08-20T09:55:42.536Z,29.01
2022-08-20T09:58:21.188Z,28.99
2022-08-20T10:00:48.390Z,28.98
2022-08-20T10:03:15.423Z,28.96
2022-08-20T10:05:41.930Z,28.97
2022-08-20T10:08:10.289Z,29.00
2022-08-20T10:10:37.268Z,29.09
2022-08-20T10:13:03.849Z,29.24
2022-08-20T10:15:31.539Z,29.37
2022-08-20T10:17:58.308Z,29.47
2022-08-20T10:20:26.048Z,29.53
2022-08-20T10:22:52.570Z,29.56
2022-08-20T10:25:19.615Z,29.56
2022-08-20T10:27:46.246Z,29.56
2022-08-20T10:30:13.045Z,29.53
2022-08-20T10:32:39.826Z,29.48
2022-08-20T10:35:06.523Z,29.41
2022-08-20T10:37:34.710Z,29.38
2022-08-20T10:40:01.262Z,29.34
2022-08-20T10:42:27.883Z,29.35
2022-08-20T10:44:54.375Z,29.40
2022-08-20T10:47:26.765Z,29.46
2022-08-20T10:49:55.300Z,29.55
2022-08-20T10:52:22.933Z,29.65
2022-08-20T10:54:49.979Z,29.73
2022-08-20T10:57:21.974Z,29.79
2022-08-20T10:59:50.183Z,29.86
2022-08-20T11:02:17.545Z,29.91
2022-08-20T11:04:44.886Z,29.92
2022-08-20T11:07:16.263Z,29.94
2022-08-20T11:09:44.233Z,29.95
2022-08-20T11:12:11.356Z,29.95
2022-08-20T11:14:38.081Z,29.90
2022-08-20T11:17:05.705Z,29.80
2022-08-20T11:19:32.537Z,29.68
2022-08-20T11:21:59.088Z,29.53
2022-08-20T11:24:25.598Z,29.33
2022-08-20T11:26:53.361Z,29.13
2022-08-20T11:29:22.281Z,28.96
2022-08-20T11:31:49.120Z,28.81
2022-08-20T11:34:15.726Z,28.68
2022-08-20T11:36:43.759Z,28.59
2022-08-20T11:39:10.295Z,28.55
2022-08-20T11:41:36.808Z,28.52
2022-08-20T11:44:20.043Z,28.53
2022-08-20T11:46:48.167Z,28.57
2022-08-20T11:49:14.699Z,28.65
2022-08-20T11:51:49.643Z,28.74
2022-08-20T11:54:16.881Z,28.84
2022-08-20T11:56:45.879Z,28.93
2022-08-20T11:59:13.602Z,29.03
2022-08-20T12:01:40.092Z,29.13
2022-08-20T12:04:06.731Z,29.24
2022-08-20T12:06:33.731Z,29.31
2022-08-20T12:09:00.591Z,29.35
2022-08-20T12:11:27.411Z,29.37
2022-08-20T12:13:53.939Z,29.38
2022-08-20T12:16:20.513Z,29.38
2022-08-20T12:18:48.165Z,29.36
2022-08-20T12:21:14.969Z,29.36
2022-08-20T12:23:41.611Z,29.33
2022-08-20T12:26:08.260Z,29.32
2022-08-20T12:28:34.805Z,29.31
2022-08-20T12:31:01.302Z,29.30
2022-08-20T12:33:27.803Z,29.33
2022-08-20T12:35:54.279Z,29.38
2022-08-20T12:38:20.976Z,29.43
2022-08-20T12:40:47.511Z,29.48
2022-08-20T12:43:14.084Z,29.52
2022-08-20T12:45:40.827Z,29.57
2022-08-20T12:48:10.863Z,29.62
2022-08-20T12:50:39.499Z,29.67
2022-08-20T12:53:06.783Z,29.72
2022-08-20T12:55:34.681Z,29.75
2022-08-20T12:58:03.609Z,29.78
2022-08-20T13:00:37.758Z,29.80
2022-08-20T13:03:06.300Z,29.86
2022-08-20T13:05:34.258Z,29.85
2022-08-20T13:08:01.308Z,29.86
2022-08-20T13:10:31.890Z,29.84
2022-08-20T13:12:59.699Z,29.85
2022-08-20T13:15:26.222Z,29.84
2022-08-20T13:17:59.104Z,29.83
2022-08-20T13:20:31.749Z,29.87
2022-08-20T13:23:03.383Z,29.90
2022-08-20T13:25:30.294Z,29.93
2022-08-20T13:28:00.568Z,29.95
2022-08-20T13:30:27.577Z,29.96
2022-08-20T13:32:54.146Z,29.95
2022-08-20T13:35:21.553Z,29.94
2022-08-20T13:37:49.191Z,29.90
2022-08-20T13:40:16.582Z,29.86
2022-08-20T13:42:43.353Z,29.81
2022-08-20T13:45:10.815Z,29.77
2022-08-20T13:47:39.855Z,29.72
2022-08-20T13:50:10.770Z,29.65
2022-08-20T13:52:38.068Z,29.64
2022-08-20T13:55:07.112Z,29.64
2022-08-20T13:57:34.187Z,29.68
2022-08-20T14:00:00.798Z,29.74
2022-08-20T14:02:27.599Z,29.80
2022-08-20T14:04:54.321Z,29.83
2022-08-20T14:07:31.647Z,29.85
2022-08-20T14:10:00.684Z,29.91
2022-08-20T14:12:28.003Z,29.97
2022-08-20T14:14:57.354Z,29.97
2022-08-20T14:17:30.242Z,29.98
2022-08-20T14:20:01.325Z,30.02
2022-08-20T14:22:28.971Z,30.08
2022-08-20T14:24:56.379Z,30.14
2022-08-20T14:27:26.559Z,30.19
2022-08-20T14:29:57.367Z,30.27
2022-08-20T14:32:23.844Z,30.32
2022-08-20T14:34:50.362Z,30.40
2022-08-20T14:37:20.182Z,30.47
2022-08-20T14:39:49.174Z,30.55
2022-08-20T14:42:16.452Z,30.60
2022-08-20T14:44:43.579Z,30.62
2022-08-20T14:47:19.587Z,30.58
2022-08-20T14:49:48.373Z,30.59
2022-08-20T14:52:16.636Z,30.61
2022-08-20T14:54:43.583Z,30.62
2022-08-20T14:57:13.346Z,30.65
2022-08-20T14:59:41.274Z,30.66
2022-08-20T15:02:10.868Z,30.69
2022-08-20T15:04:37.669Z,30.67
2022-08-20T15:07:08.139Z,30.66
2022-08-20T15:09:40.121Z,30.67
2022-08-20T15:12:06.812Z,30.67
2022-08-20T15:14:33.315Z,30.67
2022-08-20T15:17:00.117Z,30.67
2022-08-20T15:19:26.609Z,30.69
2022-08-20T15:21:53.185Z,30.69
2022-08-20T15:24:19.775Z,30.68
2022-08-20T15:26:46.728Z,30.68
2022-08-20T15:29:22.601Z,30.67
2022-08-20T15:31:49.650Z,30.66
2022-08-20T15:34:17.610Z,30.63
2022-08-20T15:36:44.930Z,30.60
2022-08-20T15:39:11.506Z,30.58
2022-08-20T15:41:38.054Z,30.56
2022-08-20T15:44:04.890Z,30.54
2022-08-20T15:46:36.012Z,30.53
2022-08-20T15:49:11.335Z,30.50
2022-08-20T15:51:49.244Z,30.44
2022-08-20T15:54:23.695Z,30.43
2022-08-20T15:57:07.135Z,30.42
2022-08-20T15:59:36.636Z,30.42
2022-08-20T16:02:29.329Z,30.42
2022-08-20T16:05:19.300Z,30.41
2022-08-20T16:08:16.840Z,30.41
2022-08-20T16:10:55.505Z,30.45
2022-08-20T16:13:28.111Z,30.40
2022-08-20T16:15:56.796Z,30.39
2022-08-20T16:18:27.626Z,30.34
2022-08-20T16:20:55.300Z,30.33
2022-08-20T16:23:29.357Z,30.30
2022-08-20T16:26:13.416Z,30.28
2022-08-20T16:28:52.828Z,30.28
2022-08-20T16:31:24.175Z,30.28
2022-08-20T16:33:54.679Z,30.26
2022-08-20T16:36:39.264Z,30.22
2022-08-20T16:39:20.645Z,30.23
2022-08-20T16:41:51.036Z,30.23
2022-08-20T16:44:34.348Z,30.17
2022-08-20T16:47:22.417Z,30.14
2022-08-20T16:49:57.697Z,30.15
2022-08-20T16:52:24.471Z,30.17
2022-08-20T16:54:51.029Z,30.14
2022-08-20T16:57:18.750Z,30.12
2022-08-20T17:00:10.016Z,30.10
2022-08-20T17:03:14.479Z,30.14
2022-08-20T17:05:50.803Z,30.19
2022-08-20T17:08:29.027Z,30.22
2022-08-20T17:11:10.833Z,30.27
2022-08-20T17:13:40.962Z,30.29
2022-08-20T17:16:13.420Z,30.28
2022-08-20T17:18:43.013Z,30.27
2022-08-20T17:21:23.243Z,30.22
2022-08-20T17:23:58.760Z,30.18
2022-08-20T17:26:31.145Z,30.16
2022-08-20T17:29:00.540Z,30.14
2022-08-20T17:31:38.735Z,30.08
2022-08-20T17:34:12.729Z,30.07
2022-08-20T17:36:49.523Z,30.00
2022-08-20T17:39:18.904Z,29.96
2022-08-20T17:41:51.901Z,29.90
2022-08-20T17:44:29.900Z,29.84
2022-08-20T17:46:58.944Z,29.83
2022-08-20T17:49:57.321Z,29.74
2022-08-20T17:52:47.205Z,29.70
2022-08-20T17:55:13.934Z,29.69
2022-08-20T17:57:52.814Z,29.63
2022-08-20T18:00:24.177Z,29.57
2022-08-20T18:02:54.090Z,29.53
2022-08-20T18:05:21.580Z,29.47
2022-08-20T18:08:06.836Z,29.39
2022-08-20T18:10:42.717Z,29.36
2022-08-20T18:13:12.201Z,29.30
2022-08-20T18:15:46.850Z,29.22
2022-08-20T18:18:28.208Z,29.16
2022-08-20T18:21:19.832Z,29.08
2022-08-20T18:24:09.738Z,29.04
2022-08-20T18:26:46.742Z,28.96
2022-08-20T18:29:22.114Z,28.93
2022-08-20T18:31:54.610Z,28.86
2022-08-20T18:34:35.674Z,28.76
2022-08-20T18:37:20.059Z,28.73
2022-08-20T18:39:48.851Z,28.69
2022-08-20T18:42:24.728Z,28.63
2022-08-20T18:44:53.308Z,28.61
2022-08-20T18:47:35.058Z,28.58
2022-08-20T18:50:40.101Z,28.52
2022-08-20T18:53:32.971Z,28.50
2022-08-20T18:56:13.581Z,28.53
2022-08-20T18:59:03.605Z,28.44
2022-08-20T19:01:34.384Z,28.43
2022-08-20T19:04:01.869Z,28.38
2022-08-20T19:06:28.324Z,28.35
2022-08-20T19:09:03.896Z,28.28
2022-08-20T19:11:59.159Z,28.22
2022-08-20T19:14:52.526Z,28.20
2022-08-20T19:17:40.688Z,28.18
2022-08-20T19:20:13.807Z,28.17
2022-08-20T19:22:42.589Z,28.16
2022-08-20T19:25:24.684Z,28.11
2022-08-20T19:27:51.865Z,28.10
2022-08-20T19:30:36.423Z,28.05
2022-08-20T19:33:03.450Z,28.05
2022-08-20T19:35:30.251Z,28.01
2022-08-20T19:37:56.798Z,27.95
2022-08-20T19:40:31.200Z,27.87
2022-08-20T19:43:02.419Z,27.83
2022-08-20T19:45:37.838Z,27.78
2022-08-20T19:48:27.444Z,27.71
2022-08-20T19:51:05.409Z,27.64
2022-08-20T19:53:34.802Z,27.59
2022-08-20T19:56:14.364Z,27.51
2022-08-20T19:58:41.677Z,27.45
2022-08-20T20:01:18.788Z,27.37
2022-08-20T20:04:05.144Z,27.31
2022-08-20T20:06:36.283Z,27.28
2022-08-20T20:09:14.859Z,27.22
2022-08-20T20:11:46.051Z,27.18
2022-08-20T20:14:14.983Z,27.14
2022-08-20T20:16:42.568Z,27.07
2022-08-20T20:19:27.727Z,27.01
2022-08-20T20:22:19.181Z,26.90
2022-08-20T20:24:49.971Z,26.86
2022-08-20T20:27:23.874Z,26.78
2022-08-20T20:30:18.063Z,26.71
2022-08-20T20:32:50.006Z,26.66
2022-08-20T20:35:28.188Z,26.58
2022-08-20T20:38:09.505Z,26.54
2022-08-20T20:40:49.482Z,26.48
2022-08-20T20:43:41.347Z,26.41
2022-08-20T20:46:21.330Z,26.36
2022-08-20T20:48:55.530Z,26.31
2022-08-20T20:51:26.312Z,26.28
2022-08-20T20:53:55.365Z,26.25
2022-08-20T20:56:32.196Z,26.19
2022-08-20T20:59:05.316Z,26.19
2022-08-20T21:01:48.184Z,26.16
2022-08-20T21:04:16.911Z,26.13
2022-08-20T21:06:43.690Z,26.09
2022-08-20T21:09:10.183Z,26.05
2022-08-20T21:11:36.719Z,26.00
2022-08-20T21:14:03.346Z,25.96
2022-08-20T21:16:30.139Z,25.92
2022-08-20T21:18:58.280Z,25.88
2022-08-20T21:21:25.038Z,25.85
2022-08-20T21:23:51.507Z,25.82
2022-08-20T21:26:18.688Z,25.79
2022-08-20T21:28:45.402Z,25.77
2022-08-20T21:31:12.175Z,25.75
2022-08-20T21:33:38.851Z,25.74
2022-08-20T21:36:06.354Z,25.71
2022-08-20T21:38:32.849Z,25.70
2022-08-20T21:40:59.411Z,25.69
2022-08-20T21:43:26.632Z,25.67
2022-08-20T21:45:53.252Z,25.65
2022-08-20T21:48:20.203Z,25.63
2022-08-20T21:50:46.695Z,25.62
2022-08-20T21:53:13.386Z,25.60
2022-08-20T21:55:40.726Z,25.59
2022-08-20T21:58:07.661Z,25.60
2022-08-20T22:00:55.258Z,25.54
2022-08-20T22:03:24.703Z,25.57
2022-08-20T22:05:52.283Z,25.57
2022-08-20T22:08:20.271Z,25.56
2022-08-20T22:10:47.138Z,25.54
2022-08-20T22:13:14.747Z,25.52
2022-08-20T22:15:41.742Z,25.50
2022-08-20T22:18:08.582Z,25.48
2022-08-20T22:20:35.298Z,25.46
2022-08-20T22:23:04.444Z,25.43
2022-08-20T22:25:31.039Z,25.41
2022-08-20T22:27:57.544Z,25.38
2022-08-20T22:30:24.215Z,25.37
2022-08-20T22:32:51.831Z,25.33
2022-08-20T22:35:19.289Z,25.31
2022-08-20T22:37:46.035Z,25.28
2022-08-20T22:40:12.646Z,25.26
2022-08-20T22:42:39.191Z,25.24
2022-08-20T22:45:12.311Z,25.20
2022-08-20T22:47:43.133Z,25.19
2022-08-20T22:50:12.026Z,25.15
2022-08-20T22:52:40.141Z,25.12
2022-08-20T22:55:07.674Z,25.10
2022-08-20T22:57:36.146Z,25.08
2022-08-20T23:00:02.992Z,25.05
2022-08-20T23:02:29.580Z,25.03
2022-08-20T23:04:56.230Z,25.00
2022-08-20T23:07:22.850Z,24.99
2022-08-20T23:09:49.639Z,24.96
2022-08-20T23:12:16.180Z,24.92
2022-08-20T23:14:42.709Z,24.88
2022-08-20T23:17:14.937Z,24.83
2022-08-20T23:19:42.065Z,24.81
2022-08-20T23:22:08.671Z,24.80
2022-08-20T23:24:35.464Z,24.76
2022-08-20T23:27:02.441Z,24.73
2022-08-20T23:29:29.187Z,24.72
2022-08-20T23:31:56.785Z,24.70
2022-08-20T23:34:24.100Z,24.68
2022-08-20T23:36:52.370Z,24.65
2022-08-20T23:39:19.574Z,24.62
2022-08-20T23:41:47.955Z,24.59
2022-08-20T23:44:25.127Z,24.56
2022-08-20T23:46:52.440Z,24.56
2022-08-20T23:49:21.445Z,24.49
2022-08-20T23:51:47.935Z,24.43
2022-08-20T23:54:14.471Z,24.35
2022-08-20T23:56:40.978Z,24.30
2022-08-20T23:59:07.536Z,24.23
